Time;durP1;ratioP1;P1;durP2;ratioP2;P2;SDS_P1;SDS_P2;PMS_P1;PMS_P2;Temp;Humidity;BMP_temperature;BMP_pressure;BME280_temperature;BME280_humidity;BME280_pressure;Samples;Min_cycle;Max_cycle;Signal;HPM_P1;HPM_P2
2022/06/02 00:01:30;;;;;;;11.60;2.40;;;;;;;19.49;71.56;100312.53;10256797;29;20502;-79
2022/06/02 00:06:54;;;;;;;15.10;2.70;;;;;;;19.58;71.42;100321.13;10255706;29;20138;-80
2022/06/02 00:12:00;;;;;;;;;;;;;;;19.60;67.73;100329.81;10243075;28;20086;-79
2022/06/02 00:17:16;;;;;;;10.07;2.83;;;;;;;19.33;70.38;100335.53;10256108;29;19918;-79
2022/06/02 00:22:55;;;;;;;10.65;2.42;;;;;;;19.47;72.97;100348.84;10255899;29;20046;-79
2022/06/02 00:28:22;;;;;;;14.18;3.17;;;;;;;19.57;71.82;100341.06;10254662;28;20137;-80
2022/06/02 00:33:55;;;;;;;10.15;3.00;;;;;;;19.34;71.99;100267.16;10255817;29;20063;-79
2022/06/02 00:38:58;;;;;;;39.08;5.22;;;;;;;18.81;70.75;100208.56;10253816;29;20101;-79
2022/06/02 00:44:29;;;;;;;14.50;3.03;;;;;;;19.04;73.38;100232.13;10254714;29;20040;-79
2022/06/02 00:49:52;;;;;;;65.70;8.35;;;;;;;19.67;72.78;100319.78;10254902;29;20059;-79
2022/06/02 01:00:44;;;;;;;8.07;2.65;;;;;;;19.82;73.51;100339.06;10254871;29;20063;-80
2022/06/02 01:05:59;;;;;;;15.80;2.92;;;;;;;19.94;72.76;100349.06;10254152;29;20043;-80
2022/06/02 01:11:12;;;;;;;16.83;3.97;;;;;;;19.18;73.43;100251.63;10253381;29;20046;-80
2022/06/02 01:16:48;;;;;;;8.73;2.67;;;;;;;19.28;74.89;100334.56;10253395;29;20077;-80
2022/06/02 01:22:09;;;;;;;13.65;2.67;;;;;;;19.02;75.97;100379.56;10253258;28;20498;-78
2022/06/02 01:27:26;;;;;;;8.88;2.58;;;;;;;18.82;77.64;100374.41;10253066;29;20058;-79
2022/06/02 01:32:47;;;;;;;10.65;2.78;;;;;;;18.39;78.42;100352.81;10252727;29;20090;-81
2022/06/02 01:38:06;;;;;;;12.45;3.13;;;;;;;18.39;79.65;100355.50;10253235;29;20047;-80
2022/06/02 01:43:12;;;;;;;26.95;4.32;;;;;;;18.50;76.13;100376.31;10252903;29;20506;-79
2022/06/02 01:48:46;;;;;;;15.55;4.35;;;;;;;18.54;78.69;100388.25;10252746;28;20070;-78
2022/06/02 01:54:27;;;;;;;15.93;3.70;;;;;;;18.50;82.07;100391.63;10258149;28;20129;-80
2022/06/02 01:59:40;;;;;;;15.02;3.95;;;;;;;18.16;83.14;100348.84;10272061;28;20046;-80
2022/06/02 02:04:53;;;;;;;14.63;3.80;;;;;;;17.13;81.64;100176.28;10268614;28;20070;-79
2022/06/02 02:10:26;;;;;;;54.08;5.57;;;;;;;18.53;81.42;100373.19;10251295;29;20043;-80
2022/06/02 02:15:48;;;;;;;24.13;4.35;;;;;;;18.68;80.02;100394.38;10251800;29;20043;-79
2022/06/02 02:21:10;;;;;;;22.85;4.78;;;;;;;18.82;80.37;100411.28;10251177;29;20102;-78
2022/06/02 02:26:30;;;;;;;20.90;4.05;;;;;;;18.90;82.96;100389.44;10251690;29;20495;-79
2022/06/02 02:31:55;;;;;;;17.88;3.90;;;;;;;18.81;80.24;100399.66;10251878;28;20043;-79
2022/06/02 02:37:11;;;;;;;10.93;3.70;;;;;;;18.59;85.15;100369.59;10259183;29;20078;-78
2022/06/02 02:42:27;;;;;;;16.88;4.20;;;;;;;18.96;85.65;100402.00;10260219;29;20483;-78
2022/06/02 02:47:48;;;;;;;18.27;4.95;;;;;;;19.28;91.52;100407.28;10259058;29;20043;-79
2022/06/02 02:53:01;;;;;;;10.82;5.43;;;;;;;19.56;96.88;100407.59;10258692;29;20375;-82
2022/06/02 02:58:31;;;;;;;12.48;5.28;;;;;;;19.77;100.00;100419.81;10259176;29;20054;-78
2022/06/02 03:03:37;;;;;;;9.48;4.90;;;;;;;19.83;94.21;100412.66;10258767;29;20178;-78
2022/06/02 03:09:08;;;;;;;8.45;5.25;;;;;;;20.04;100.00;100425.69;10259478;29;20043;-78
2022/06/02 03:14:41;;;;;;;17.30;5.65;;;;;;;20.20;100.00;100420.69;10231385;29;20051;-82
2022/06/02 03:20:02;;;;;;;29.17;6.10;;;;;;;20.47;100.00;100423.81;10258419;29;20566;-79
2022/06/02 03:25:24;;;;;;;8.85;4.95;;;;;;;20.70;97.92;100415.81;10257693;29;20093;-80
2022/06/02 03:30:32;;;;;;;12.15;4.97;;;;;;;20.97;94.39;100370.25;10258685;29;20385;-79
2022/06/02 03:35:54;;;;;;;11.25;4.43;;;;;;;21.25;95.41;100330.88;10258298;29;20507;-78
2022/06/02 03:41:14;;;;;;;18.55;4.85;;;;;;;22.16;95.54;100428.38;10257093;29;20043;-78
2022/06/02 03:46:33;;;;;;;9.25;2.85;;;;;;;22.23;90.36;100325.44;10257319;28;20047;-77
2022/06/02 03:52:19;;;;;;;15.65;2.83;;;;;;;25.23;79.21;100433.06;10257646;29;20416;-79
2022/06/02 03:57:58;;;;;;;8.68;2.35;;;;;;;27.27;67.96;100442.72;10227377;29;20055;-81
2022/06/02 04:03:05;;;;;;;11.15;2.53;;;;;;;26.54;68.02;100437.63;10254246;29;20062;-77
2022/06/02 04:08:24;;;;;;;10.65;2.30;;;;;;;26.65;65.38;100461.03;10255123;29;20049;-77
2022/06/02 04:13:52;;;;;;;5.93;1.95;;;;;;;27.95;59.95;100462.16;10268511;28;20529;-82
2022/06/02 04:18:53;;;;;;;10.07;2.13;;;;;;;28.85;58.68;100458.28;10242951;28;20513;-79
2022/06/02 04:24:14;;;;;;;9.23;2.17;;;;;;;27.97;54.19;100268.00;10255396;29;20051;-79
2022/06/02 04:29:40;;;;;;;74.18;5.40;;;;;;;28.88;53.87;100463.16;10257492;28;20494;-77
2022/06/02 04:35:02;;;;;;;16.38;2.92;;;;;;;26.94;57.13;100356.91;10276093;28;20062;-75
2022/06/02 04:40:10;;;;;;;11.77;2.63;;;;;;;26.25;60.37;100459.88;10244550;28;20050;-76
2022/06/02 04:45:21;;;;;;;10.73;3.00;;;;;;;25.45;63.83;100462.81;10254599;29;20109;-76
2022/06/02 04:50:48;;;;;;;5.82;2.33;;;;;;;25.15;65.01;100473.50;10253860;29;20097;-80
2022/06/02 04:56:12;;;;;;;21.75;2.63;;;;;;;25.21;64.95;100459.69;10253994;28;20056;-78
2022/06/02 05:01:40;;;;;;;11.45;2.20;;;;;;;25.71;62.99;100458.31;10252905;29;20117;-77
2022/06/02 05:06:49;;;;;;;9.68;2.38;;;;;;;25.66;61.72;100431.09;10254402;29;20093;-78
2022/06/02 05:12:23;;;;;;;17.20;2.92;;;;;;;25.84;62.11;100465.19;10254761;29;20043;-76
2022/06/02 05:17:36;;;;;;;20.45;3.08;;;;;;;25.64;62.85;100436.00;10254408;29;20077;-76
2022/06/02 05:22:37;;;;;;;13.90;2.90;;;;;;;25.80;62.02;100458.63;10253409;29;20519;-79
2022/06/02 05:27:54;;;;;;;18.90;2.97;;;;;;;25.65;62.50;100481.16;10253561;29;20043;-80
2022/06/02 05:33:14;;;;;;;8.77;2.47;;;;;;;25.47;62.95;100476.16;10253159;29;20035;-79
2022/06/02 05:38:24;;;;;;;17.33;2.97;;;;;;;24.54;63.47;100371.44;10253688;29;20055;-82
2022/06/02 05:43:41;;;;;;;5.15;2.15;;;;;;;25.26;63.92;100477.94;10252983;29;20046;-70
2022/06/02 05:49:13;;;;;;;8.95;2.75;;;;;;;25.86;63.22;100476.63;10252517;29;20125;-74
2022/06/02 05:54:17;;;;;;;;;;;;;;;26.40;59.75;100467.25;10252987;29;20077;-73
2022/06/02 05:59:51;;;;;;;12.77;2.75;;;;;;;26.15;61.14;100470.75;10251964;29;19914;-75
2022/06/02 06:05:15;;;;;;;6.93;2.33;;;;;;;26.08;60.98;100432.88;10252540;29;20051;-74
2022/06/02 06:10:23;;;;;;;22.23;2.58;;;;;;;25.05;60.07;100222.28;10251518;28;20039;-75
2022/06/02 06:15:46;;;;;;;12.48;2.22;;;;;;;26.61;59.35;100454.50;10272017;28;20133;-74
2022/06/02 06:20:59;;;;;;;7.20;1.83;;;;;;;26.59;57.96;100443.03;10291291;28;20039;-76
2022/06/02 06:26:25;;;;;;;10.02;2.03;;;;;;;26.13;57.49;100350.41;10277287;28;20396;-77
2022/06/02 06:31:26;;;;;;;10.95;1.80;;;;;;;26.68;56.81;100443.31;10250478;29;20043;-74
2022/06/02 06:36:53;;;;;;;10.07;2.00;;;;;;;26.75;56.38;100444.69;10252255;29;20043;-72
2022/06/02 06:42:12;;;;;;;7.05;1.90;;;;;;;26.93;56.08;100446.03;10258634;28;20403;-72
2022/06/02 06:47:20;;;;;;;16.38;2.20;;;;;;;26.93;54.11;100399.72;10232392;28;20472;-72
2022/06/02 06:52:43;;;;;;;7.20;1.75;;;;;;;27.37;52.82;100433.69;10234604;29;20049;-71
2022/06/02 06:57:48;;;;;;;;;;;;;;;27.87;52.09;100437.34;10251315;29;20050;-72
2022/06/02 07:03:10;;;;;;;12.85;1.80;;;;;;;27.63;49.40;100398.97;10252093;29;19973;-73
2022/06/02 07:08:29;;;;;;;20.30;1.90;;;;;;;27.98;49.20;100437.03;10250506;29;20046;-73
2022/06/02 07:13:46;;;;;;;12.18;1.92;;;;;;;27.96;49.01;100436.47;10251046;29;20051;-74
2022/06/02 07:18:57;;;;;;;10.40;1.35;;;;;;;28.01;50.14;100440.28;10251323;28;20055;-74
2022/06/02 07:24:29;;;;;;;21.40;2.05;;;;;;;28.26;49.29;100439.31;10257851;29;20043;-71
2022/06/02 07:29:33;;;;;;;;;;;;;;;28.64;47.68;100435.75;10253634;28;20396;-73
2022/06/02 07:34:53;;;;;;;10.23;2.05;;;;;;;29.13;47.02;100401.94;10256557;29;19922;-72
2022/06/02 07:40:19;;;;;;;17.20;2.13;;;;;;;29.64;44.78;100429.84;10256547;29;20054;-75
2022/06/02 07:45:22;;;;;;;21.88;1.98;;;;;;;29.63;45.00;100429.03;10256840;29;20511;-74
2022/06/02 07:50:28;;;;;;;20.25;2.38;;;;;;;29.61;44.22;100425.75;10255916;28;20087;-74
2022/06/02 07:55:57;;;;;;;18.35;2.17;;;;;;;29.79;43.05;100407.75;10257110;29;20082;-77
2022/06/02 08:01:11;;;;;;;13.43;2.35;;;;;;;29.96;41.59;100412.72;10256421;29;20073;-74
2022/06/02 08:06:28;;;;;;;18.30;2.58;;;;;;;28.62;38.27;100189.25;10256223;29;20503;-78
2022/06/02 08:11:45;;;;;;;19.17;2.67;;;;;;;30.21;39.24;100403.31;10256730;29;20043;-77
2022/06/02 08:17:08;;;;;;;14.80;2.20;;;;;;;30.40;40.39;100397.84;10264492;28;20050;-75
2022/06/02 08:22:15;;;;;;;35.92;3.00;;;;;;;30.76;37.74;100395.28;10295966;28;20043;-73
2022/06/02 08:27:49;;;;;;;21.60;2.88;;;;;;;30.87;37.04;100395.94;10295450;28;20081;-72
2022/06/02 08:33:25;;;;;;;22.13;2.75;;;;;;;30.19;35.74;100285.78;10294270;28;20039;-70
2022/06/02 08:38:26;;;;;;;18.15;2.85;;;;;;;30.83;34.90;100395.72;10261894;28;20454;-76
2022/06/02 08:44:09;;;;;;;17.40;3.00;;;;;;;31.04;34.11;100395.34;10253305;29;20047;-71
2022/06/02 08:49:21;;;;;;;22.15;2.70;;;;;;;31.06;32.25;100349.22;10226137;29;20515;-72
2022/06/02 08:54:58;;;;;;;23.80;3.33;;;;;;;31.79;31.30;100389.41;10254603;28;20094;-77
2022/06/02 09:00:23;;;;;;;20.92;2.80;;;;;;;31.33;29.75;100286.09;10254813;29;20050;-75
2022/06/02 09:05:49;;;;;;;25.02;3.40;;;;;;;32.10;30.37;100372.28;10253204;29;20047;-71
2022/06/02 09:11:08;;;;;;;38.42;4.30;;;;;;;32.32;30.17;100378.88;10253584;29;20126;-73
2022/06/02 09:16:46;;;;;;;19.85;3.05;;;;;;;32.55;29.61;100364.03;10253516;29;20050;-75
2022/06/02 09:22:01;;;;;;;28.00;3.92;;;;;;;32.96;29.76;100365.66;10253368;29;20412;-72
2022/06/02 09:27:39;;;;;;;39.05;4.43;;;;;;;33.27;28.79;100364.84;10253665;29;20035;-72
2022/06/02 09:33:33;;;;;;;66.47;5.50;;;;;;;32.25;28.94;100171.25;10253574;29;20059;-72
2022/06/02 09:38:54;;;;;;;17.15;3.15;;;;;;;32.99;28.62;100265.19;10253997;29;20046;-75
2022/06/02 09:44:15;;;;;;;20.55;2.63;;;;;;;32.45;27.01;100158.88;10213586;28;20142;-72
2022/06/02 09:49:41;;;;;;;20.17;2.67;;;;;;;33.68;28.09;100347.91;10250571;28;20051;-74
2022/06/02 09:55:16;;;;;;;20.35;2.60;;;;;;;33.78;27.61;100352.31;10252087;29;20275;-71
2022/06/02 10:00:42;;;;;;;16.08;3.00;;;;;;;33.88;27.71;100312.59;10253157;29;20054;-72
2022/06/02 10:05:43;;;;;;;15.18;3.22;;;;;;;34.29;27.10;100345.97;10253328;29;20046;-76
2022/06/02 10:10:58;;;;;;;11.00;2.60;;;;;;;34.59;25.94;100337.00;10252498;29;20045;-72
2022/06/02 10:16:17;;;;;;;19.45;3.30;;;;;;;34.37;26.55;100338.00;10252203;28;20051;-73
2022/06/02 10:21:50;;;;;;;13.75;2.78;;;;;;;33.44;27.51;100229.94;10269412;28;20372;-73
2022/06/02 10:27:13;;;;;;;13.50;2.13;;;;;;;33.59;27.15;100328.63;10251876;29;20079;-74
2022/06/02 10:32:36;;;;;;;14.90;2.78;;;;;;;33.35;27.19;100331.78;10259721;28;20050;-75
2022/06/02 10:38:17;;;;;;;15.40;2.38;;;;;;;33.10;27.34;100327.88;10291624;28;20046;-75
2022/06/02 10:43:39;;;;;;;14.88;2.88;;;;;;;33.49;26.81;100323.41;10291482;28;20043;-74
2022/06/02 10:48:59;;;;;;;;;;;;;;;34.17;25.87;100320.22;10291883;28;20063;-74
2022/06/02 10:54:37;;;;;;;16.48;2.35;;;;;;;33.69;25.58;100253.13;10293134;28;20028;-73
2022/06/02 11:00:02;;;;;;;15.98;2.15;;;;;;;33.57;25.95;100214.41;10299747;28;20054;-74
2022/06/02 11:05:39;;;;;;;31.20;2.78;;;;;;;34.15;24.65;100317.75;10299305;28;20553;-75
2022/06/02 11:10:58;;;;;;;23.38;2.53;;;;;;;34.31;24.50;100310.59;10298105;28;20392;-73
2022/06/02 11:16:13;;;;;;;16.13;2.45;;;;;;;34.29;24.95;100295.53;10281326;28;20447;-76
2022/06/02 11:21:26;;;;;;;18.60;3.40;;;;;;;34.38;24.81;100301.81;10298279;28;20133;-75
2022/06/02 11:26:59;;;;;;;19.52;2.40;;;;;;;34.42;24.69;100316.56;10298063;28;20038;-72
2022/06/02 11:32:12;;;;;;;15.50;2.50;;;;;;;34.53;24.08;100317.84;10284708;28;20527;-77
2022/06/02 11:37:50;;;;;;;30.20;3.50;;;;;;;34.67;24.90;100312.13;10258086;29;20104;-79
2022/06/02 11:43:16;;;;;;;26.52;3.28;;;;;;;34.63;23.94;100316.69;10257301;29;20103;-74
2022/06/02 11:48:22;;;;;;;15.50;2.47;;;;;;;34.60;23.22;100309.06;10217705;29;20555;-76
2022/06/02 11:53:44;;;;;;;18.77;2.30;;;;;;;34.50;22.46;100301.94;10255400;29;20039;-78
2022/06/02 11:59:08;;;;;;;16.20;2.55;;;;;;;34.35;23.40;100307.19;10257240;29;20503;-76
2022/06/02 12:04:08;;;;;;;28.38;2.55;;;;;;;33.55;23.00;100206.47;10249894;28;20110;-73
2022/06/02 12:09:45;;;;;;;12.10;2.05;;;;;;;34.34;22.99;100314.63;10255551;29;20039;-78
2022/06/02 12:15:01;;;;;;;16.25;2.53;;;;;;;34.40;23.75;100318.84;10254742;29;20035;-79
2022/06/02 12:20:11;;;;;;;13.88;2.58;;;;;;;34.19;23.00;100302.19;10253530;29;20054;-77
2022/06/02 12:25:31;;;;;;;16.75;2.90;;;;;;;34.22;23.20;100314.50;10244836;28;20216;-76
2022/06/02 12:30:43;;;;;;;21.90;3.45;;;;;;;33.71;24.02;100275.63;10250258;29;20051;-74
2022/06/02 12:36:08;;;;;;;22.25;3.83;;;;;;;33.25;24.32;100240.47;10243195;29;20552;-76
2022/06/02 12:41:28;;;;;;;18.95;3.40;;;;;;;33.83;24.25;100332.84;10253020;28;20110;-76
2022/06/02 12:46:58;;;;;;;25.80;3.50;;;;;;;33.70;24.25;100333.81;10245819;28;20047;-73
2022/06/02 12:52:20;;;;;;;37.67;4.78;;;;;;;33.59;24.43;100336.88;10260592;28;20086;-74
2022/06/02 12:57:50;;;;;;;24.60;4.03;;;;;;;33.56;24.84;100340.28;10249493;29;20055;-73
2022/06/02 13:03:11;;;;;;;35.33;4.00;;;;;;;33.52;24.13;100338.50;10250237;29;20042;-73
2022/06/02 13:08:55;;;;;;;27.60;3.80;;;;;;;33.30;23.93;100293.44;10248405;29;20031;-72
2022/06/02 13:14:17;;;;;;;31.98;3.75;;;;;;;33.26;24.46;100327.41;10249217;29;20039;-73
2022/06/02 13:19:36;;;;;;;27.38;3.50;;;;;;;33.09;23.60;100334.50;10247851;28;20035;-74
2022/06/02 13:25:11;;;;;;;21.58;4.90;;;;;;;32.97;23.89;100331.53;10248740;29;20055;-76
2022/06/02 13:30:48;;;;;;;19.50;3.85;;;;;;;33.01;23.84;100321.53;10249500;28;20043;-76
2022/06/02 13:36:18;;;;;;;29.73;4.78;;;;;;;32.86;23.45;100349.44;10248136;28;20129;-75
2022/06/02 13:41:25;;;;;;;20.20;4.22;;;;;;;32.60;23.92;100328.13;10250651;29;20098;-75
2022/06/02 13:47:02;;;;;;;19.77;3.55;;;;;;;32.57;23.60;100331.50;10252391;29;20538;-73
2022/06/02 13:52:27;;;;;;;37.38;4.93;;;;;;;32.46;23.34;100335.69;10253633;29;20059;-73
2022/06/02 13:57:50;;;;;;;23.50;4.28;;;;;;;32.38;24.09;100341.91;10252966;29;20035;-73
2022/06/02 14:03:19;;;;;;;25.20;4.07;;;;;;;32.24;24.67;100353.75;10234891;29;20427;-71
2022/06/02 14:08:49;;;;;;;21.40;3.50;;;;;;;32.18;24.36;100340.47;10252282;29;20051;-73
2022/06/02 14:14:16;;;;;;;26.20;4.40;;;;;;;32.05;24.51;100345.72;10250631;29;20051;-77
2022/06/02 14:19:41;;;;;;;48.47;7.07;;;;;;;31.86;24.89;100347.81;10251914;29;20496;-71
2022/06/02 14:25:08;;;;;;;26.17;3.67;;;;;;;31.18;24.56;100236.22;10252611;29;20055;-72
2022/06/02 14:30:18;;;;;;;24.05;3.42;;;;;;;31.70;24.70;100347.31;10250861;28;20043;-71
2022/06/02 14:35:28;;;;;;;32.30;4.13;;;;;;;30.82;25.12;100253.44;10251559;29;20618;-71
2022/06/02 14:40:37;;;;;;;41.47;5.53;;;;;;;30.74;24.97;100271.38;10251292;29;20388;-74
2022/06/02 14:45:38;;;;;;;33.05;4.88;;;;;;;31.21;26.05;100357.16;10251645;29;20499;-75
2022/06/02 14:50:54;;;;;;;34.03;4.75;;;;;;;31.18;25.70;100378.91;10251753;29;20055;-73
2022/06/02 14:56:11;;;;;;;23.90;3.97;;;;;;;30.73;26.34;100349.28;10250637;29;20145;-73
2022/06/02 15:01:35;;;;;;;43.15;4.97;;;;;;;30.73;26.46;100390.41;10251307;29;20126;-71
2022/06/02 15:07:14;;;;;;;30.20;4.75;;;;;;;30.37;26.59;100366.34;10251019;29;20090;-73
2022/06/02 15:12:30;;;;;;;30.15;4.30;;;;;;;30.31;26.97;100394.16;10246286;28;20047;-75
2022/06/02 15:18:04;;;;;;;25.73;3.95;;;;;;;30.20;27.20;100394.31;10244403;29;20141;-74
2022/06/02 15:23:35;;;;;;;47.35;5.60;;;;;;;29.95;27.26;100398.22;10208879;29;20047;-71
2022/06/02 15:28:53;;;;;;;38.95;4.70;;;;;;;29.86;27.45;100394.53;10211154;29;20047;-72
2022/06/02 15:34:25;;;;;;;33.58;3.55;;;;;;;29.68;27.53;100401.59;10209006;29;20415;-75
2022/06/02 15:39:51;;;;;;;34.33;3.92;;;;;;;28.73;28.05;100282.88;10211769;29;20523;-71
2022/06/02 15:45:04;;;;;;;43.10;5.65;;;;;;;28.93;28.33;100371.25;10222414;29;20043;-74
2022/06/02 15:50:32;;;;;;;28.65;3.92;;;;;;;28.97;28.72;100403.19;10257003;29;20058;-72
2022/06/02 15:55:57;;;;;;;33.45;4.60;;;;;;;27.97;29.24;100285.22;10255879;29;20039;-72
2022/06/02 16:01:36;;;;;;;25.70;3.75;;;;;;;28.50;29.44;100407.47;10238968;29;20047;-70
2022/06/02 16:07:21;;;;;;;42.72;4.45;;;;;;;28.27;29.80;100408.16;10257127;29;20051;-72
2022/06/02 16:12:45;;;;;;;57.28;5.82;;;;;;;28.01;30.11;100411.06;10245320;29;20062;-72
2022/06/02 16:18:01;;;;;;;33.70;4.32;;;;;;;27.74;30.66;100406.00;10255354;29;20130;-75
2022/06/02 16:23:33;;;;;;;38.00;4.53;;;;;;;27.59;30.79;100400.63;10255647;29;20050;-72
2022/06/02 16:29:10;;;;;;;22.70;4.10;;;;;;;27.36;31.38;100404.81;10254598;29;20582;-72
2022/06/02 16:34:26;;;;;;;25.40;3.67;;;;;;;27.12;31.69;100419.00;10256584;29;20133;-71
2022/06/02 16:39:49;;;;;;;33.60;3.78;;;;;;;26.61;32.01;100380.94;10255221;29;20451;-72
2022/06/02 16:45:17;;;;;;;22.80;2.90;;;;;;;26.75;32.27;100430.25;10255637;29;20051;-71
2022/06/02 16:50:17;;;;;;;29.30;3.55;;;;;;;25.65;32.82;100292.63;10254086;28;20059;-73
2022/06/02 16:55:36;;;;;;;18.58;3.15;;;;;;;26.39;33.12;100431.03;10255863;29;20134;-73
2022/06/02 17:00:58;;;;;;;20.52;2.95;;;;;;;25.45;33.74;100324.09;10254490;29;20121;-71
2022/06/02 17:06:08;;;;;;;19.27;2.78;;;;;;;25.96;33.54;100444.00;10254011;29;20043;-71
2022/06/02 17:11:21;;;;;;;18.85;2.53;;;;;;;25.80;34.06;100442.28;10254986;29;20035;-72
2022/06/02 17:16:46;;;;;;;15.32;2.05;;;;;;;25.04;34.54;100359.25;10253850;29;20078;-75
2022/06/02 17:22:14;;;;;;;17.25;2.25;;;;;;;25.53;34.76;100466.13;10255200;29;20453;-73
2022/06/02 17:27:18;;;;;;;19.48;1.88;;;;;;;25.33;34.96;100462.19;10253575;29;20150;-72
2022/06/02 17:32:44;;;;;;;11.80;2.17;;;;;;;25.19;35.47;100478.16;10254614;29;20050;-72
2022/06/02 17:38:27;;;;;;;21.45;3.05;;;;;;;25.06;35.26;100479.38;10253609;29;20105;-73
2022/06/02 17:43:37;;;;;;;17.58;2.50;;;;;;;24.87;36.35;100474.63;10233200;29;20090;-71
2022/06/02 17:49:08;;;;;;;15.35;2.40;;;;;;;24.76;36.47;100484.59;10253137;28;20106;-73
2022/06/02 17:54:27;;;;;;;19.38;2.15;;;;;;;24.65;36.71;100485.56;10252780;29;20050;-72
2022/06/02 17:59:44;;;;;;;18.13;1.88;;;;;;;23.52;37.57;100323.47;10251532;29;20047;-75
2022/06/02 18:05:11;;;;;;;14.98;2.35;;;;;;;24.44;37.94;100485.41;10250510;28;20087;-74
2022/06/02 18:10:45;;;;;;;12.23;2.03;;;;;;;24.33;38.12;100513.50;10246095;28;20503;-73
2022/06/02 18:15:51;;;;;;;13.73;2.13;;;;;;;23.33;38.83;100369.03;10245085;29;20173;-75
2022/06/02 18:21:14;;;;;;;18.08;2.50;;;;;;;24.02;39.29;100502.28;10246728;29;20043;-73
2022/06/02 18:26:37;;;;;;;11.82;2.33;;;;;;;23.89;39.86;100499.94;10246154;29;20043;-74
2022/06/02 18:31:48;;;;;;;23.38;2.25;;;;;;;23.07;40.57;100398.53;10242336;29;20040;-73
2022/06/02 18:36:57;;;;;;;13.05;2.50;;;;;;;22.78;41.28;100382.34;10254197;28;20047;-73
2022/06/02 18:42:35;;;;;;;16.77;2.33;;;;;;;23.47;41.72;100503.97;10234607;29;20039;-77
2022/06/02 18:47:38;;;;;;;15.38;2.22;;;;;;;23.28;41.95;100494.47;10251677;29;20142;-74
2022/06/02 18:53:11;;;;;;;13.75;1.80;;;;;;;23.04;42.82;100480.31;10279710;28;20042;-76
2022/06/02 18:58:29;;;;;;;19.48;2.28;;;;;;;23.05;43.83;100490.06;10251773;28;20494;-72
2022/06/02 19:03:48;;;;;;;16.92;1.88;;;;;;;22.97;44.37;100482.34;10231418;29;20126;-73
2022/06/02 19:15:24;;;;;;;7.22;1.50;;;;;;;22.83;44.23;100481.00;10240431;28;20051;-76
2022/06/02 19:20:35;;;;;;;14.85;2.00;;;;;;;22.73;45.01;100485.16;10250103;29;20051;-75
2022/06/02 19:26:09;;;;;;;7.85;1.45;;;;;;;22.44;45.90;100470.06;10257501;29;20451;-73
2022/06/02 19:31:16;;;;;;;6.10;1.05;;;;;;;22.43;45.91;100463.78;10218940;29;20537;-75
2022/06/02 19:36:48;;;;;;;5.35;1.10;;;;;;;22.50;46.68;100490.75;10218781;29;20050;-73
2022/06/02 19:42:06;;;;;;;8.88;1.15;;;;;;;22.36;47.04;100486.69;10218609;29;20503;-75
2022/06/02 19:47:18;;;;;;;8.90;1.15;;;;;;;22.17;48.52;100491.47;10218053;29;20053;-75
2022/06/02 19:52:37;;;;;;;12.07;1.52;;;;;;;21.51;48.40;100377.34;10217594;29;20044;-77
2022/06/02 19:57:53;;;;;;;14.00;1.40;;;;;;;21.28;49.93;100356.59;10217289;29;20052;-74
2022/06/02 20:03:10;;;;;;;13.50;1.58;;;;;;;21.98;49.89;100486.19;10216703;29;20032;-77
2022/06/02 20:08:35;;;;;;;2.70;0.88;;;;;;;21.88;50.56;100494.09;10223380;29;20122;-76
2022/06/02 20:13:46;;;;;;;6.28;1.23;;;;;;;21.07;50.89;100376.94;10249962;29;20074;-75
2022/06/02 20:18:52;;;;;;;2.40;0.90;;;;;;;21.34;50.79;100448.31;10256389;29;20045;-76
2022/06/02 20:24:02;;;;;;;9.20;1.20;;;;;;;21.41;51.55;100465.25;10256580;29;20376;-75
2022/06/02 20:29:18;;;;;;;3.42;1.00;;;;;;;21.41;52.51;100484.16;10254556;28;20090;-75
2022/06/02 20:34:45;;;;;;;3.50;0.90;;;;;;;21.36;54.09;100472.44;10255579;29;20050;-77
2022/06/02 20:40:07;;;;;;;2.22;0.80;;;;;;;21.18;54.44;100457.16;10248974;28;20495;-78
2022/06/02 20:45:37;;;;;;;2.20;0.70;;;;;;;21.13;55.87;100468.66;10247505;29;20039;-78
2022/06/02 20:50:46;;;;;;;2.53;0.90;;;;;;;20.86;56.45;100435.88;10254414;29;20059;-78
2022/06/02 20:55:56;;;;;;;4.90;0.90;;;;;;;20.92;57.25;100459.25;10254511;29;20043;-77
2022/06/02 21:00:59;;;;;;;2.33;0.93;;;;;;;20.00;56.90;100332.78;10254660;29;20043;-77
2022/06/02 21:06:25;;;;;;;3.63;0.68;;;;;;;20.78;57.84;100452.41;10254254;29;20136;-78
2022/06/02 21:11:33;;;;;;;3.22;1.13;;;;;;;20.75;57.80;100480.69;10253382;29;20051;-78
2022/06/02 21:16:49;;;;;;;5.75;1.15;;;;;;;20.72;57.71;100485.72;10254230;29;20043;-78
2022/06/02 21:21:56;;;;;;;2.95;1.10;;;;;;;19.74;57.43;100347.50;10252214;29;20054;-77
2022/06/02 21:27:13;;;;;;;2.83;1.00;;;;;;;19.60;59.75;100356.78;10253063;29;20045;-79
2022/06/02 21:32:44;;;;;;;2.67;0.70;;;;;;;20.32;59.55;100491.69;10254030;29;20487;-78
2022/06/02 21:37:53;;;;;;;12.63;1.17;;;;;;;19.97;61.05;100470.75;10253755;28;20047;-77
2022/06/02 21:43:07;;;;;;;4.75;1.00;;;;;;;19.84;62.41;100479.03;10252545;29;20039;-76
2022/06/02 21:48:18;;;;;;;6.07;0.98;;;;;;;19.75;64.21;100475.00;10250882;29;20055;-76
2022/06/02 21:53:30;;;;;;;3.20;0.82;;;;;;;19.63;63.49;100465.97;10255335;28;20039;-78
2022/06/02 21:58:47;;;;;;;3.53;0.90;;;;;;;19.71;63.74;100479.16;10252490;29;20538;-78
2022/06/02 22:04:14;;;;;;;2.53;0.88;;;;;;;19.44;64.60;100433.63;10213401;29;20495;-76
2022/06/02 22:09:25;;;;;;;2.97;1.00;;;;;;;18.94;63.67;100334.13;10212786;29;20040;-76
2022/06/02 22:14:42;;;;;;;4.72;1.27;;;;;;;19.45;63.38;100415.63;10212674;29;20043;-78
2022/06/02 22:19:49;;;;;;;1.30;0.80;;;;;;;19.93;64.24;100493.03;10212400;29;20044;-78
2022/06/02 22:25:13;;;;;;;3.83;0.98;;;;;;;19.75;63.80;100481.19;10212444;29;20137;-78
2022/06/02 22:31:03;;;;;;;5.88;1.05;;;;;;;19.76;64.04;100482.03;10212928;29;20075;-78
2022/06/02 22:36:03;;;;;;;2.38;1.00;;;;;;;18.19;62.67;100245.44;10196275;29;20048;-78
2022/06/02 22:41:18;;;;;;;6.07;1.10;;;;;;;19.05;64.59;100405.25;10211944;29;20043;-78
2022/06/02 22:46:37;;;;;;;5.50;1.58;;;;;;;18.88;63.37;100384.28;10210951;29;20126;-78
2022/06/02 22:52:13;;;;;;;2.67;1.10;;;;;;;19.23;65.67;100455.59;10217308;29;20056;-78
2022/06/02 22:57:35;;;;;;;2.15;0.95;;;;;;;19.13;64.13;100478.47;10197099;29;20534;-78
2022/06/02 23:03:11;;;;;;;4.18;1.10;;;;;;;18.97;66.63;100487.13;10219950;29;20492;-78
2022/06/02 23:08:49;;;;;;;2.88;0.98;;;;;;;18.77;67.79;100481.88;10219005;29;20448;-78
2022/06/02 23:14:08;;;;;;;4.07;1.30;;;;;;;17.80;69.55;100338.75;10219133;29;20040;-78
2022/06/02 23:20:05;;;;;;;4.43;1.10;;;;;;;18.61;69.46;100477.84;10219608;29;20377;-77
2022/06/02 23:25:12;;;;;;;7.32;1.90;;;;;;;18.43;67.46;100461.63;10096819;29;20048;-78
2022/06/02 23:30:29;;;;;;;5.25;1.33;;;;;;;17.54;70.08;100318.19;10200370;29;20055;-78
2022/06/02 23:35:57;;;;;;;11.35;1.33;;;;;;;18.12;69.84;100414.81;10218426;29;20044;-78
2022/06/02 23:44:10;;;;;;;10.13;1.48;;;;;;;18.23;70.88;100451.78;10218259;29;20051;-78
2022/06/02 23:47:10;;;;;;;8.63;1.45;;;;;;;18.14;71.93;100468.41;10217494;29;20070;-79
2022/06/02 23:52:17;;;;;;;3.42;1.33;;;;;;;17.96;71.39;100461.03;10217274;29;20059;-79
2022/06/02 23:57:43;;;;;;;5.85;1.38;;;;;;;17.92;72.73;100459.78;10217990;29;20405;-79
